createdAt,value
2019-04-29T00:03:18.438Z,53960.58
2019-04-29T00:08:37.031Z,53937.37
2019-04-29T00:13:55.945Z,53933.33
2019-04-29T00:19:22.046Z,53963.61
2019-04-29T00:24:40.684Z,53954.53
2019-04-29T00:29:59.324Z,53959.57
2019-04-29T00:35:17.960Z,53948.47
2019-04-29T00:40:38.170Z,53935.35
2019-04-29T00:45:56.861Z,53952.51
2019-04-29T00:51:15.528Z,53943.43
2019-04-29T00:56:34.256Z,53933.33
2019-04-29T01:01:53.049Z,53947.46
2019-04-29T01:07:11.758Z,53985.82
2019-04-29T01:12:30.394Z,53915.17
2019-04-29T01:17:49.016Z,53956.55
2019-04-29T01:23:07.652Z,53942.42
2019-04-29T01:28:27.924Z,53954.53
2019-04-29T01:33:48.216Z,53935.35
2019-04-29T01:39:09.216Z,53946.45
2019-04-29T01:44:29.427Z,53960.58
2019-04-29T01:49:48.009Z,53934.34
2019-04-29T01:55:06.858Z,53969.67
2019-04-29T02:00:25.499Z,53956.55
2019-04-29T02:05:44.333Z,53921.22
2019-04-29T02:11:03.081Z,53948.47
2019-04-29T02:16:21.864Z,53936.36
2019-04-29T02:21:41.960Z,53923.24
2019-04-29T02:27:00.512Z,53928.29
2019-04-29T02:32:19.197Z,53961.59
2019-04-29T02:37:39.338Z,53968.66
2019-04-29T02:42:59.548Z,53947.46
2019-04-29T02:48:18.111Z,53970.68
2019-04-29T02:53:36.675Z,53944.43
2019-04-29T02:58:59.816Z,53943.43
2019-04-29T03:04:20.136Z,53971.68
2019-04-29T03:09:45.479Z,53935.35
2019-04-29T03:15:05.277Z,53937.37
2019-04-29T03:20:28.567Z,53974.71
2019-04-29T03:25:47.206Z,53931.32
2019-04-29T03:31:05.832Z,53949.48
2019-04-29T03:36:24.455Z,53948.47
2019-04-29T03:41:43.410Z,53970.68
2019-04-29T03:47:01.951Z,53917.18
2019-04-29T03:52:20.458Z,53951.50
2019-04-29T03:57:39.110Z,53940.40
2019-04-29T04:02:59.341Z,53949.48
2019-04-29T04:08:37.674Z,53962.60
2019-04-29T04:13:56.241Z,53948.47
2019-04-29T04:19:15.063Z,53963.61
2019-04-29T04:24:33.632Z,53929.30
2019-04-29T04:29:52.195Z,53953.52
2019-04-29T04:35:11.213Z,53975.72
2019-04-29T04:40:31.422Z,53964.62
2019-04-29T04:45:50.000Z,53950.49
2019-04-29T04:51:08.568Z,53995.91
2019-04-29T04:56:27.146Z,53976.73
2019-04-29T05:01:45.708Z,53993.89
2019-04-29T05:07:04.281Z,53981.78
2019-04-29T05:12:22.850Z,53981.78
2019-04-29T05:17:41.542Z,53969.67
2019-04-29T05:23:00.201Z,54019.12
2019-04-29T05:28:18.760Z,54019.12
2019-04-29T05:33:37.302Z,54014.07
2019-04-29T05:38:57.503Z,53995.91
2019-04-29T05:44:19.151Z,54041.32
2019-04-29T05:49:45.669Z,54027.20
2019-04-29T05:55:05.361Z,53981.78
2019-04-29T06:00:24.310Z,53994.90
2019-04-29T06:05:42.837Z,54010.04
2019-04-29T06:11:01.411Z,54023.16
2019-04-29T06:16:20.988Z,54022.15
2019-04-29T06:21:40.227Z,53997.93
2019-04-29T06:26:58.793Z,54042.34
2019-04-29T06:32:20.265Z,54009.03
2019-04-29T06:37:37.565Z,54037.29
2019-04-29T06:42:56.044Z,54029.21
2019-04-29T06:48:14.665Z,54002.97
2019-04-29T06:53:33.208Z,54013.06
2019-04-29T06:58:51.713Z,54032.24
2019-04-29T07:04:10.249Z,54017.10
2019-04-29T07:09:28.820Z,54018.11
2019-04-29T07:14:47.413Z,53975.72
2019-04-29T07:20:06.932Z,54013.06
2019-04-29T07:25:28.742Z,53975.72
2019-04-29T07:31:01.197Z,54016.09
2019-04-29T07:36:11.112Z,54050.41
2019-04-29T07:41:26.502Z,54003.98
2019-04-29T07:46:56.774Z,54012.05
2019-04-29T07:52:09.793Z,54037.29
2019-04-29T07:57:27.472Z,53992.88
2019-04-29T08:02:46.195Z,54033.25
2019-04-29T08:08:05.314Z,54006.00
2019-04-29T08:13:26.181Z,54030.22
2019-04-29T08:18:44.750Z,54031.23
2019-04-29T08:24:03.474Z,54045.36
2019-04-29T08:29:22.051Z,54008.02
2019-04-29T08:34:40.974Z,54008.02
2019-04-29T08:40:15.122Z,53979.76
2019-04-29T08:45:39.100Z,54017.10
2019-04-29T08:50:57.779Z,54034.26
2019-04-29T08:56:16.535Z,54027.20
2019-04-29T09:01:35.810Z,54018.11
2019-04-29T09:06:54.743Z,54038.30
2019-04-29T09:12:13.569Z,53998.93
2019-04-29T09:17:32.131Z,54006.00
2019-04-29T09:22:55.123Z,54027.20
2019-04-29T09:28:18.417Z,54025.18
2019-04-29T09:33:35.504Z,54007.01
2019-04-29T09:38:54.066Z,54011.05
2019-04-29T09:44:30.670Z,54025.18
2019-04-29T09:49:49.279Z,54016.09
2019-04-29T09:55:08.586Z,54015.08
2019-04-29T10:00:45.388Z,54015.08
2019-04-29T10:06:20.950Z,54000.95
2019-04-29T10:11:39.876Z,54083.71
2019-04-29T10:17:15.415Z,54040.31
2019-04-29T10:22:33.817Z,54009.03
2019-04-29T10:27:52.533Z,54015.08
2019-04-29T10:33:12.822Z,54028.20
2019-04-29T10:38:32.699Z,54022.15
2019-04-29T10:44:02.011Z,54030.22
2019-04-29T10:49:22.850Z,54021.14
2019-04-29T10:54:41.599Z,54038.30
2019-04-29T11:00:11.319Z,54035.27
2019-04-29T11:05:34.661Z,53989.85
2019-04-29T11:11:02.166Z,54042.34
2019-04-29T11:16:15.764Z,54020.13
2019-04-29T11:21:34.705Z,54001.96
2019-04-29T11:26:54.994Z,54028.20
2019-04-29T11:32:15.994Z,54025.18
2019-04-29T11:37:35.040Z,54061.51
2019-04-29T11:42:53.684Z,54004.99
2019-04-29T11:48:13.618Z,54038.30
2019-04-29T11:53:32.513Z,54008.02
2019-04-29T11:58:52.793Z,54026.19
2019-04-29T12:04:13.174Z,54028.20
2019-04-29T12:09:33.632Z,54023.16
2019-04-29T12:14:56.658Z,54011.05
2019-04-29T12:20:22.899Z,54001.96
2019-04-29T12:25:41.757Z,54021.14
2019-04-29T12:31:05.760Z,54022.15
2019-04-29T12:36:22.995Z,54019.12
2019-04-29T12:41:49.428Z,54054.45
2019-04-29T12:47:25.896Z,54004.99
2019-04-29T12:52:32.992Z,54008.02
2019-04-29T12:57:55.335Z,54013.06
2019-04-29T13:03:39.240Z,54027.20
2019-04-29T13:08:52.958Z,54008.02
2019-04-29T13:14:11.673Z,54054.45
2019-04-29T13:19:32.093Z,54028.20
2019-04-29T13:24:50.797Z,54036.28
2019-04-29T13:30:16.047Z,54010.04
2019-04-29T13:35:33.146Z,54030.22
2019-04-29T13:41:11.512Z,54011.05
2019-04-29T13:46:16.747Z,54033.25
2019-04-29T13:51:37.033Z,54003.98
2019-04-29T13:56:57.066Z,53980.77
2019-04-29T14:02:22.244Z,54032.24
2019-04-29T14:07:40.974Z,54008.02
2019-04-29T14:13:09.632Z,54038.30
2019-04-29T14:18:20.091Z,53996.92
2019-04-29T14:23:38.759Z,54009.03
2019-04-29T14:28:57.430Z,54011.05
2019-04-29T14:34:20.359Z,54050.41
2019-04-29T14:39:38.607Z,54015.08
2019-04-29T14:44:58.905Z,54017.10
2019-04-29T14:50:20.601Z,54017.10
2019-04-29T14:55:38.465Z,54000.95
2019-04-29T15:01:02.056Z,54006.00
2019-04-29T15:06:21.139Z,54009.03
2019-04-29T15:11:45.489Z,54020.13
2019-04-29T15:17:03.786Z,54016.09
2019-04-29T15:22:24.672Z,54007.01
2019-04-29T15:27:43.428Z,54024.17
2019-04-29T15:33:02.145Z,54012.05
2019-04-29T15:38:20.781Z,54008.02
2019-04-29T15:43:47.453Z,53985.82
2019-04-29T15:49:01.436Z,54026.19
2019-04-29T15:54:20.079Z,54020.13
2019-04-29T15:59:48.639Z,54047.38
2019-04-29T16:05:04.656Z,53996.92
2019-04-29T16:10:58.025Z,54007.01
2019-04-29T16:16:13.029Z,54017.10
2019-04-29T16:21:38.884Z,54033.25
2019-04-29T16:26:53.608Z,54022.15
2019-04-29T16:32:14.209Z,53990.86
2019-04-29T16:37:33.381Z,54029.21
2019-04-29T16:43:08.503Z,53996.92
2019-04-29T16:48:27.400Z,54028.20
2019-04-29T16:53:46.343Z,54020.13
2019-04-29T16:59:09.214Z,54020.13
2019-04-29T17:04:25.439Z,54011.05
2019-04-29T17:10:02.162Z,53992.88
2019-04-29T17:15:25.491Z,53997.93
2019-04-29T17:20:41.555Z,53996.92
2019-04-29T17:26:00.262Z,53994.90
2019-04-29T17:37:00.323Z,53990.86
2019-04-29T17:42:18.957Z,54006.00
2019-04-29T17:47:58.829Z,53995.91
2019-04-29T17:53:25.366Z,54018.11
2019-04-29T17:58:51.328Z,54012.05
2019-04-29T18:04:16.664Z,54014.07
2019-04-29T18:09:36.661Z,53985.82
2019-04-29T18:14:55.441Z,53983.80
2019-04-29T18:20:17.670Z,54000.95
2019-04-29T18:25:44.844Z,53970.68
2019-04-29T18:31:05.925Z,53992.88
2019-04-29T18:36:26.643Z,53966.64
2019-04-29T18:41:44.982Z,53998.93
2019-04-29T18:47:05.513Z,53981.78
2019-04-29T18:52:27.891Z,53997.93
2019-04-29T18:57:44.365Z,53975.72
2019-04-29T19:03:03.114Z,53985.82
2019-04-29T19:08:23.411Z,53991.87
2019-04-29T19:13:43.523Z,54009.03
2019-04-29T19:19:02.729Z,53954.53
2019-04-29T19:24:21.248Z,53981.78
2019-04-29T19:29:43.227Z,53989.85
2019-04-29T19:35:00.264Z,53985.82
2019-04-29T19:40:18.918Z,53972.70
2019-04-29T19:45:37.910Z,53999.95
2019-04-29T19:51:13.982Z,53990.86
2019-04-29T19:56:23.370Z,53970.68
2019-04-29T20:01:38.255Z,54012.05
2019-04-29T20:07:05.649Z,53996.92
2019-04-29T20:12:18.197Z,54023.16
2019-04-29T20:17:57.793Z,54030.22
2019-04-29T20:23:24.915Z,54044.35
2019-04-29T20:28:36.994Z,53996.92
2019-04-29T20:33:58.485Z,53992.88
2019-04-29T20:39:23.078Z,54002.97
2019-04-29T20:44:37.036Z,53974.71
2019-04-29T20:49:57.156Z,53988.84
2019-04-29T20:55:16.087Z,53972.70
2019-04-29T21:00:38.003Z,53991.87
2019-04-29T21:06:02.694Z,53985.82
2019-04-29T21:11:30.467Z,53991.87
2019-04-29T21:16:50.648Z,53971.68
2019-04-29T21:22:12.900Z,53980.77
2019-04-29T21:27:29.649Z,53987.83
2019-04-29T21:32:48.368Z,53999.95
2019-04-29T21:38:08.564Z,53970.68
2019-04-29T21:43:28.793Z,53997.93
2019-04-29T21:48:47.338Z,54015.08
2019-04-29T21:54:09.710Z,54006.00
2019-04-29T21:59:26.419Z,53981.78
2019-04-29T22:04:46.990Z,54016.09
2019-04-29T22:10:08.706Z,53999.95
2019-04-29T22:15:32.751Z,53997.93
2019-04-29T22:20:47.786Z,53953.52
2019-04-29T22:26:06.532Z,53956.55
2019-04-29T22:31:28.388Z,53968.66
2019-04-29T22:36:48.268Z,54020.13
2019-04-29T22:42:07.510Z,54010.04
2019-04-29T22:47:26.064Z,54000.95
2019-04-29T22:52:45.320Z,53983.80
2019-04-29T22:58:08.597Z,53991.87
2019-04-29T23:03:24.341Z,53998.93
2019-04-29T23:08:44.900Z,54022.15
2019-04-29T23:14:06.614Z,53977.74
2019-04-29T23:19:25.803Z,53989.85
2019-04-29T23:24:55.778Z,53978.75
2019-04-29T23:30:17.997Z,53993.89
2019-04-29T23:35:39.824Z,54014.07
2019-04-29T23:40:57.717Z,54016.09
2019-04-29T23:46:16.342Z,54010.04
2019-04-29T23:51:37.794Z,53994.90
2019-04-29T23:57:02.797Z,54000.95
